Engleside, Virginia
Current Conditions -  °F | °C
As of 6:58 AM on Sunday 21 Dec 2014 (Local Time) from KDAA Reporting Station
Overcast Overcast  
Wind Chill: 32°   Ceiling: 7000
Heat Index: 32°   Visibility: 10mi
Dew Point: 28°   Wind: 0mph
Humidity: 82%   Direction: NA
Pressure: 30.34"   Gusts: NA
Location:  38.7232°N, 77.1268°W
Report Text: KDAA 211158Z AUTO 00000KT 10SM OVC070 00/M02 A3034 RMK AO2 SLP278 T00021025 10007 21007 53009
Loading
Personal Weather Stations






























Interactive Weather Map New forecast layout! Learn more

10-Day Weather Forecast

Advertisements
Track Severe Weather on mobile